createdAt,value
2022-07-29T00:00:52.104Z,7.13
2022-07-29T00:03:18.636Z,8.90
2022-07-29T00:05:45.261Z,6.55
2022-07-29T00:08:12.727Z,7.25
2022-07-29T00:10:39.621Z,6.47
2022-07-29T00:13:06.333Z,7.95
2022-07-29T00:15:32.892Z,7.00
2022-07-29T00:17:59.406Z,7.70
2022-07-29T00:20:25.918Z,7.28
2022-07-29T00:22:52.365Z,7.63
2022-07-29T00:25:18.783Z,8.00
2022-07-29T00:27:45.247Z,8.40
2022-07-29T00:30:11.924Z,6.22
2022-07-29T00:32:38.620Z,7.53
2022-07-29T00:35:06.003Z,7.03
2022-07-29T00:37:32.557Z,6.75
2022-07-29T00:39:59.004Z,7.10
2022-07-29T00:42:25.413Z,7.90
2022-07-29T00:44:51.869Z,6.40
2022-07-29T00:47:18.384Z,5.75
2022-07-29T00:49:44.908Z,6.18
2022-07-29T00:52:12.530Z,6.00
2022-07-29T00:54:44.493Z,6.65
2022-07-29T00:57:12.949Z,6.07
2022-07-29T00:59:39.462Z,9.35
2022-07-29T01:02:06.038Z,6.75
2022-07-29T01:04:33.177Z,7.30
2022-07-29T01:07:02.351Z,7.05
2022-07-29T01:09:42.187Z,9.20
2022-07-29T01:12:15.936Z,6.47
2022-07-29T01:14:42.926Z,10.07
2022-07-29T01:17:20.984Z,6.77
2022-07-29T01:19:53.487Z,10.05
2022-07-29T01:22:28.891Z,7.65
2022-07-29T01:25:13.987Z,8.55
2022-07-29T01:27:56.534Z,7.38
2022-07-29T01:30:25.751Z,6.50
2022-07-29T01:32:57.257Z,8.32
2022-07-29T01:35:34.708Z,6.30
2022-07-29T01:38:30.208Z,10.45
2022-07-29T01:41:15.511Z,8.10
2022-07-29T01:43:52.747Z,6.70
2022-07-29T01:46:25.429Z,6.50
2022-07-29T01:48:58.499Z,6.88
2022-07-29T01:51:30.045Z,6.45
2022-07-29T01:54:05.134Z,6.35
2022-07-29T01:56:34.095Z,7.13
2022-07-29T01:59:03.925Z,8.15
2022-07-29T02:01:33.574Z,5.78
2022-07-29T02:04:04.878Z,6.75
2022-07-29T02:06:34.298Z,8.10
2022-07-29T02:09:03.140Z,8.50
2022-07-29T02:11:34.117Z,6.88
2022-07-29T02:14:02.876Z,8.90
2022-07-29T02:16:33.014Z,7.30
2022-07-29T02:19:03.684Z,7.72
2022-07-29T02:21:32.966Z,7.57
2022-07-29T02:24:02.753Z,7.57
2022-07-29T02:26:31.341Z,6.38
2022-07-29T02:28:59.590Z,6.93
2022-07-29T02:31:29.647Z,6.28
2022-07-29T02:33:58.043Z,7.13
2022-07-29T02:36:25.933Z,7.07
2022-07-29T02:38:53.741Z,7.15
2022-07-29T02:41:34.335Z,11.75
2022-07-29T02:44:10.108Z,6.75
2022-07-29T02:46:38.614Z,7.70
2022-07-29T02:49:14.483Z,7.95
2022-07-29T02:51:47.639Z,8.30
2022-07-29T02:54:27.013Z,8.68
2022-07-29T02:56:56.227Z,6.35
2022-07-29T02:59:25.846Z,6.33
2022-07-29T03:01:55.168Z,8.07
2022-07-29T03:04:25.139Z,7.18
2022-07-29T03:06:53.765Z,6.85
2022-07-29T03:09:21.754Z,7.40
2022-07-29T03:11:50.728Z,7.13
2022-07-29T03:14:21.518Z,7.13
2022-07-29T03:16:49.120Z,7.72
2022-07-29T03:19:16.358Z,7.03
2022-07-29T03:21:42.894Z,9.02
2022-07-29T03:24:10.839Z,7.27
2022-07-29T03:26:37.842Z,7.63
2022-07-29T03:29:04.332Z,6.93
2022-07-29T03:31:30.841Z,8.00
2022-07-29T03:33:57.403Z,6.75
2022-07-29T03:36:23.867Z,6.70
2022-07-29T03:38:51.215Z,6.90
2022-07-29T03:41:22.324Z,6.82
2022-07-29T03:43:51.111Z,7.65
2022-07-29T03:46:19.089Z,7.68
2022-07-29T03:48:51.640Z,7.93
2022-07-29T03:51:18.299Z,7.32
2022-07-29T03:54:00.371Z,8.38
2022-07-29T03:56:28.985Z,9.68
2022-07-29T03:58:55.630Z,6.93
2022-07-29T04:01:23.390Z,7.67
2022-07-29T04:03:50.008Z,11.15
2022-07-29T04:06:16.487Z,7.30
2022-07-29T04:08:42.926Z,6.93
2022-07-29T04:11:09.442Z,7.60
2022-07-29T04:13:35.876Z,6.70
2022-07-29T04:16:02.348Z,8.43
2022-07-29T04:18:28.884Z,7.15
2022-07-29T04:20:55.365Z,8.23
2022-07-29T04:23:21.833Z,6.57
2022-07-29T04:25:48.441Z,7.77
2022-07-29T04:28:14.871Z,7.05
2022-07-29T04:30:43.648Z,6.65
2022-07-29T04:33:10.203Z,7.78
2022-07-29T04:35:50.509Z,8.30
2022-07-29T04:38:19.039Z,7.27
2022-07-29T04:40:45.475Z,6.68
2022-07-29T04:43:14.247Z,8.98
2022-07-29T04:45:42.176Z,6.70
2022-07-29T04:48:08.796Z,8.18
2022-07-29T04:50:35.316Z,7.63
2022-07-29T04:53:01.728Z,7.55
2022-07-29T04:55:28.160Z,8.45
2022-07-29T04:57:54.586Z,7.68
2022-07-29T05:00:21.230Z,7.43
2022-07-29T05:02:54.557Z,8.47
2022-07-29T05:05:21.076Z,8.38
2022-07-29T05:07:47.504Z,6.43
2022-07-29T05:10:13.951Z,8.38
2022-07-29T05:12:40.418Z,8.15
2022-07-29T05:15:07.415Z,7.27
2022-07-29T05:17:33.922Z,6.80
2022-07-29T05:20:00.363Z,6.45
2022-07-29T05:22:26.808Z,7.32
2022-07-29T05:24:53.230Z,7.80
2022-07-29T05:27:20.004Z,8.10
2022-07-29T05:29:46.452Z,7.88
2022-07-29T05:32:15.922Z,10.68
2022-07-29T05:34:50.920Z,7.95
2022-07-29T05:37:21.495Z,7.97
2022-07-29T05:39:50.631Z,9.17
2022-07-29T05:42:22.982Z,9.25
2022-07-29T05:44:49.517Z,8.60
2022-07-29T05:47:16.015Z,7.85
2022-07-29T05:49:42.477Z,7.47
2022-07-29T05:52:09.202Z,8.70
2022-07-29T05:54:36.069Z,8.45
2022-07-29T05:57:03.077Z,10.02
2022-07-29T05:59:30.567Z,9.10
2022-07-29T06:01:57.299Z,7.60
2022-07-29T06:04:23.948Z,9.80
2022-07-29T06:06:50.419Z,8.55
2022-07-29T06:09:16.910Z,8.38
2022-07-29T06:11:43.350Z,8.15
2022-07-29T06:14:09.846Z,9.00
2022-07-29T06:16:36.533Z,8.20
2022-07-29T06:19:03.108Z,9.82
2022-07-29T06:21:29.574Z,10.80
2022-07-29T06:23:56.004Z,10.32
2022-07-29T06:26:30.690Z,8.60
2022-07-29T06:28:58.036Z,8.67
2022-07-29T06:31:24.541Z,8.63
2022-07-29T06:33:51.052Z,8.27
2022-07-29T06:36:17.486Z,8.38
2022-07-29T06:38:49.467Z,10.02
2022-07-29T06:41:18.408Z,7.67
2022-07-29T06:43:51.081Z,9.07
2022-07-29T06:46:22.022Z,10.52
2022-07-29T06:48:49.757Z,9.23
2022-07-29T06:51:16.553Z,10.70
2022-07-29T06:53:59.075Z,10.40
2022-07-29T06:56:29.348Z,9.55
2022-07-29T06:58:55.919Z,9.30
2022-07-29T07:01:22.466Z,9.57
2022-07-29T07:03:49.088Z,8.88
2022-07-29T07:06:15.550Z,9.37
2022-07-29T07:08:42.138Z,8.40
2022-07-29T07:11:09.128Z,7.95
2022-07-29T07:13:36.634Z,9.35
2022-07-29T07:16:04.186Z,8.70
2022-07-29T07:18:30.808Z,7.93
2022-07-29T07:20:57.931Z,9.63
2022-07-29T07:23:24.780Z,8.73
2022-07-29T07:25:51.419Z,10.30
2022-07-29T07:28:17.957Z,9.60
2022-07-29T07:30:45.853Z,10.30
2022-07-29T07:33:12.441Z,9.25
2022-07-29T07:35:38.894Z,8.98
2022-07-29T07:38:05.380Z,8.05
2022-07-29T07:40:31.834Z,8.32
2022-07-29T07:42:58.448Z,9.40
2022-07-29T07:45:25.376Z,11.88
2022-07-29T07:47:51.851Z,8.88
2022-07-29T07:50:19.177Z,8.80
2022-07-29T07:52:53.962Z,7.53
2022-07-29T07:55:20.825Z,8.77
2022-07-29T07:57:47.958Z,8.45
2022-07-29T08:00:15.873Z,9.32
2022-07-29T08:02:42.625Z,8.45
2022-07-29T08:05:12.842Z,8.10
2022-07-29T08:07:39.631Z,7.90
2022-07-29T08:10:06.546Z,10.43
2022-07-29T08:12:33.059Z,9.10
2022-07-29T08:14:59.525Z,9.63
2022-07-29T08:17:25.978Z,9.52
2022-07-29T08:19:52.410Z,9.73
2022-07-29T08:22:18.832Z,10.68
2022-07-29T08:24:45.383Z,9.20
2022-07-29T08:27:33.372Z,8.43
2022-07-29T08:29:58.513Z,9.63
2022-07-29T08:32:43.765Z,9.80
2022-07-29T08:35:11.437Z,10.05
2022-07-29T08:37:37.879Z,11.10
2022-07-29T08:40:04.762Z,8.98
2022-07-29T08:42:31.440Z,10.45
2022-07-29T08:44:58.821Z,9.50
2022-07-29T08:47:26.801Z,11.30
2022-07-29T08:49:53.285Z,10.98
2022-07-29T08:52:21.292Z,8.43
2022-07-29T08:54:48.533Z,10.48
2022-07-29T08:57:15.729Z,10.70
2022-07-29T08:59:47.634Z,9.98
2022-07-29T09:02:20.951Z,8.20
2022-07-29T09:04:48.159Z,9.75
2022-07-29T09:07:19.885Z,9.25
2022-07-29T09:09:47.274Z,9.57
2022-07-29T09:12:13.918Z,9.50
2022-07-29T09:14:56.068Z,9.02
2022-07-29T09:17:47.815Z,9.82
2022-07-29T09:20:17.811Z,8.02
2022-07-29T09:22:44.933Z,7.93
2022-07-29T09:25:13.128Z,9.82
2022-07-29T09:27:39.814Z,9.50
2022-07-29T09:30:08.943Z,8.90
2022-07-29T09:32:55.173Z,9.13
2022-07-29T09:35:25.072Z,7.53
2022-07-29T09:37:52.028Z,12.60
2022-07-29T09:40:20.139Z,8.75
2022-07-29T09:42:47.472Z,9.75
2022-07-29T09:45:27.513Z,8.13
2022-07-29T09:47:54.002Z,8.17
2022-07-29T09:50:21.265Z,7.78
2022-07-29T09:52:50.260Z,8.60
2022-07-29T09:55:18.193Z,8.82
2022-07-29T09:57:46.212Z,8.50
2022-07-29T10:00:12.954Z,7.83
2022-07-29T10:02:44.882Z,9.52
2022-07-29T10:05:22.841Z,7.25
2022-07-29T10:07:54.487Z,8.68
2022-07-29T10:10:27.958Z,8.68
2022-07-29T10:13:08.030Z,6.33
2022-07-29T10:15:39.807Z,8.98
2022-07-29T10:18:07.146Z,8.13
2022-07-29T10:20:34.052Z,7.57
2022-07-29T10:23:00.669Z,7.25
2022-07-29T10:25:27.516Z,8.30
2022-07-29T10:27:54.739Z,8.48
2022-07-29T10:30:23.809Z,7.72
2022-07-29T10:32:55.986Z,6.97
2022-07-29T10:35:28.998Z,8.13
2022-07-29T10:38:26.540Z,6.60
2022-07-29T10:41:19.844Z,8.10
2022-07-29T10:43:51.297Z,7.85
2022-07-29T10:46:19.131Z,8.35
2022-07-29T10:49:08.602Z,7.68
2022-07-29T10:51:51.180Z,9.30
2022-07-29T10:54:39.682Z,9.35
2022-07-29T10:57:19.647Z,8.55
2022-07-29T10:59:53.066Z,7.47
2022-07-29T11:02:41.576Z,9.68
2022-07-29T11:05:09.982Z,6.53
2022-07-29T11:07:45.668Z,5.95
2022-07-29T11:10:15.867Z,9.38
2022-07-29T11:12:42.852Z,7.75
2022-07-29T11:15:18.165Z,6.43
2022-07-29T11:17:53.880Z,7.27
2022-07-29T11:20:46.295Z,7.75
2022-07-29T11:23:26.313Z,7.88
2022-07-29T11:26:12.881Z,6.57
2022-07-29T11:28:51.288Z,8.90
2022-07-29T11:31:37.236Z,9.13
2022-07-29T11:34:23.690Z,13.90
2022-07-29T11:37:10.150Z,8.02
2022-07-29T11:39:38.465Z,8.15
2022-07-29T11:42:32.468Z,8.80
2022-07-29T11:45:08.416Z,8.53
2022-07-29T11:47:48.937Z,7.47
2022-07-29T11:50:37.111Z,9.55
2022-07-29T11:53:12.095Z,6.95
2022-07-29T11:55:51.236Z,7.97
2022-07-29T11:58:22.801Z,7.23
2022-07-29T12:00:52.520Z,8.50
2022-07-29T12:03:35.138Z,9.90
2022-07-29T12:06:12.447Z,9.40
2022-07-29T12:08:43.179Z,19.58
2022-07-29T12:11:21.406Z,10.73
2022-07-29T12:13:49.424Z,7.93
2022-07-29T12:16:16.393Z,10.57
2022-07-29T12:19:05.345Z,9.48
2022-07-29T12:21:52.236Z,8.75
2022-07-29T12:24:26.591Z,8.07
2022-07-29T12:26:58.715Z,9.30
2022-07-29T12:29:35.237Z,13.30
2022-07-29T12:32:04.520Z,10.50
2022-07-29T12:34:32.072Z,9.38
2022-07-29T12:36:58.680Z,10.30
2022-07-29T12:39:25.503Z,7.43
2022-07-29T12:41:52.284Z,8.35
2022-07-29T12:44:45.258Z,6.00
2022-07-29T12:47:11.713Z,10.73
2022-07-29T12:49:38.371Z,7.87
2022-07-29T12:52:33.513Z,7.00
2022-07-29T12:55:00.569Z,7.90
2022-07-29T12:57:28.214Z,8.13
2022-07-29T13:00:11.241Z,8.93
2022-07-29T13:02:38.734Z,8.57
2022-07-29T13:05:06.545Z,7.78
2022-07-29T13:07:54.364Z,8.00
2022-07-29T13:10:24.484Z,9.02
2022-07-29T13:13:08.817Z,8.90
2022-07-29T13:15:35.880Z,8.87
2022-07-29T13:18:02.897Z,6.60
2022-07-29T13:20:30.519Z,8.80
2022-07-29T13:23:00.949Z,9.13
2022-07-29T13:25:32.193Z,9.07
2022-07-29T13:28:00.510Z,8.97
2022-07-29T13:30:27.097Z,8.50
2022-07-29T13:32:53.664Z,9.38
2022-07-29T13:35:20.431Z,7.85
2022-07-29T13:37:47.214Z,8.43
2022-07-29T13:40:14.289Z,10.03
2022-07-29T13:42:41.720Z,9.32
2022-07-29T13:45:09.712Z,8.77
2022-07-29T13:47:36.234Z,9.40
2022-07-29T13:50:03.016Z,8.15
2022-07-29T13:52:29.892Z,9.57
2022-07-29T13:54:57.027Z,9.88
2022-07-29T13:57:23.524Z,9.55
2022-07-29T13:59:53.890Z,7.72
2022-07-29T14:02:25.360Z,10.68
2022-07-29T14:04:55.939Z,7.23
2022-07-29T14:07:23.114Z,7.57
2022-07-29T14:09:49.620Z,8.13
2022-07-29T14:12:16.063Z,9.40
2022-07-29T14:14:42.586Z,8.30
2022-07-29T14:17:10.054Z,7.50
2022-07-29T14:19:36.911Z,8.38
2022-07-29T14:22:08.528Z,9.07
2022-07-29T14:24:37.313Z,10.70
2022-07-29T14:27:05.383Z,8.57
2022-07-29T14:29:37.368Z,8.93
2022-07-29T14:32:06.697Z,9.82
2022-07-29T14:34:34.009Z,11.07
2022-07-29T14:37:00.435Z,7.82
2022-07-29T14:39:26.869Z,8.57
2022-07-29T14:41:59.081Z,8.20
2022-07-29T14:44:25.991Z,7.55
2022-07-29T14:46:52.429Z,11.05
2022-07-29T14:49:18.899Z,9.57
2022-07-29T14:51:45.365Z,11.00
2022-07-29T14:54:11.802Z,8.80
2022-07-29T14:56:46.638Z,8.32
2022-07-29T14:59:13.788Z,8.50
2022-07-29T15:01:40.337Z,8.20
2022-07-29T15:04:06.872Z,8.70
2022-07-29T15:06:33.324Z,9.13
2022-07-29T15:08:59.763Z,8.02
2022-07-29T15:11:26.243Z,7.53
2022-07-29T15:13:52.721Z,8.65
2022-07-29T15:16:19.184Z,7.30
2022-07-29T15:18:45.684Z,9.97
2022-07-29T15:21:12.089Z,7.85
2022-07-29T15:23:38.525Z,9.48
2022-07-29T15:26:05.418Z,8.88
2022-07-29T15:28:31.852Z,9.95
2022-07-29T15:30:58.349Z,9.47
2022-07-29T15:33:24.788Z,8.32
2022-07-29T15:35:51.264Z,6.78
2022-07-29T15:38:17.988Z,8.32
2022-07-29T15:40:44.443Z,7.10
2022-07-29T15:43:10.941Z,8.90
2022-07-29T15:45:40.337Z,7.78
2022-07-29T15:48:08.786Z,8.70
2022-07-29T15:50:35.745Z,8.15
2022-07-29T15:53:02.545Z,8.23
2022-07-29T15:55:29.046Z,8.00
2022-07-29T15:58:00.251Z,9.43
2022-07-29T16:00:27.056Z,8.05
2022-07-29T16:02:53.527Z,9.30
2022-07-29T16:05:19.956Z,8.98
2022-07-29T16:07:46.430Z,8.90
2022-07-29T16:10:12.906Z,7.50
2022-07-29T16:12:39.326Z,9.68
2022-07-29T16:15:09.712Z,8.68
2022-07-29T16:17:37.294Z,7.88
2022-07-29T16:20:04.806Z,7.23
2022-07-29T16:22:31.346Z,8.57
2022-07-29T16:24:57.798Z,8.05
2022-07-29T16:27:24.297Z,6.88
2022-07-29T16:29:50.733Z,9.77
2022-07-29T16:32:22.098Z,7.27
2022-07-29T16:34:49.043Z,6.65
2022-07-29T16:37:15.514Z,11.07
2022-07-29T16:39:42.888Z,7.63
2022-07-29T16:42:09.939Z,7.53
2022-07-29T16:44:38.070Z,7.00
2022-07-29T16:47:04.597Z,7.55
2022-07-29T16:49:31.475Z,9.18
2022-07-29T16:51:57.924Z,9.15
2022-07-29T16:54:25.387Z,8.00
2022-07-29T16:56:51.813Z,7.57
2022-07-29T16:59:18.272Z,7.00
2022-07-29T17:01:44.735Z,7.47
2022-07-29T17:04:11.203Z,9.45
2022-07-29T17:06:40.885Z,7.45
2022-07-29T17:09:09.036Z,6.60
2022-07-29T17:11:51.772Z,8.45
2022-07-29T17:14:23.990Z,7.38
2022-07-29T17:17:02.901Z,7.05
2022-07-29T17:19:34.364Z,7.38
2022-07-29T17:22:12.594Z,7.60
2022-07-29T17:24:42.376Z,8.82
2022-07-29T17:27:10.101Z,9.30
2022-07-29T17:29:36.639Z,8.32
2022-07-29T17:32:03.091Z,9.82
2022-07-29T17:34:29.538Z,8.93
2022-07-29T17:36:57.073Z,7.65
2022-07-29T17:39:24.056Z,8.57
2022-07-29T17:41:50.615Z,8.73
2022-07-29T17:44:17.026Z,8.18
2022-07-29T17:46:43.513Z,8.70
2022-07-29T17:49:10.103Z,7.95
2022-07-29T17:51:36.596Z,7.85
2022-07-29T17:54:03.197Z,8.65
2022-07-29T17:56:29.606Z,11.00
2022-07-29T17:58:56.078Z,8.37
2022-07-29T18:01:23.452Z,7.80
2022-07-29T18:03:49.912Z,8.68
2022-07-29T18:06:16.353Z,9.23
2022-07-29T18:08:42.758Z,8.98
2022-07-29T18:11:09.176Z,8.93
2022-07-29T18:13:41.490Z,8.13
2022-07-29T18:16:08.263Z,8.25
2022-07-29T18:18:35.159Z,8.20
2022-07-29T18:21:02.033Z,8.68
2022-07-29T18:23:28.456Z,8.43
2022-07-29T18:25:54.902Z,8.00
2022-07-29T18:28:21.328Z,7.53
2022-07-29T18:30:47.951Z,8.13
2022-07-29T18:33:22.629Z,8.82
2022-07-29T18:35:51.038Z,11.80
2022-07-29T18:38:17.981Z,10.70
2022-07-29T18:40:44.728Z,9.30
2022-07-29T18:43:12.650Z,7.70
2022-07-29T18:45:39.577Z,9.88
2022-07-29T18:48:06.616Z,9.87
2022-07-29T18:50:33.032Z,12.65
2022-07-29T18:52:59.580Z,9.15
2022-07-29T18:55:26.138Z,9.38
2022-07-29T18:57:54.426Z,10.23
2022-07-29T19:00:24.129Z,9.07
2022-07-29T19:02:50.970Z,9.05
2022-07-29T19:05:17.511Z,9.65
2022-07-29T19:07:43.967Z,7.82
2022-07-29T19:10:10.557Z,8.57
2022-07-29T19:12:36.998Z,10.70
2022-07-29T19:15:03.801Z,9.77
2022-07-29T19:17:30.237Z,10.75
2022-07-29T19:19:56.683Z,13.20
2022-07-29T19:22:23.564Z,9.55
2022-07-29T19:24:50.748Z,11.40
2022-07-29T19:27:17.403Z,10.07
2022-07-29T19:29:43.859Z,9.98
2022-07-29T19:32:10.656Z,8.32
2022-07-29T19:34:37.131Z,9.48
2022-07-29T19:37:03.790Z,9.50
2022-07-29T19:39:31.918Z,8.15
2022-07-29T19:42:03.453Z,7.85
2022-07-29T19:44:30.260Z,8.63
2022-07-29T19:46:57.038Z,8.27
2022-07-29T19:49:23.920Z,9.50
2022-07-29T19:51:50.441Z,9.60
2022-07-29T19:54:19.851Z,11.32
2022-07-29T19:56:46.299Z,9.88
2022-07-29T19:59:12.731Z,11.50
2022-07-29T20:01:39.561Z,9.67
2022-07-29T20:04:06.056Z,10.77
2022-07-29T20:06:32.645Z,9.10
2022-07-29T20:08:59.213Z,9.25
2022-07-29T20:11:25.755Z,9.40
2022-07-29T20:13:52.171Z,10.53
2022-07-29T20:16:18.840Z,11.85
2022-07-29T20:18:45.313Z,11.05
2022-07-29T20:21:11.770Z,9.90
2022-07-29T20:23:38.198Z,10.95
2022-07-29T20:26:09.324Z,11.13
2022-07-29T20:28:35.842Z,9.98
2022-07-29T20:31:02.350Z,13.68
2022-07-29T20:33:28.880Z,9.93
2022-07-29T20:35:55.314Z,11.98
2022-07-29T20:38:21.768Z,9.00
2022-07-29T20:40:48.175Z,9.38
2022-07-29T20:43:14.578Z,10.13
2022-07-29T20:45:41.007Z,12.48
2022-07-29T20:48:08.478Z,10.63
2022-07-29T20:50:35.042Z,10.77
2022-07-29T20:53:01.470Z,10.70
2022-07-29T20:55:28.008Z,15.07
2022-07-29T20:57:54.421Z,9.85
2022-07-29T21:00:20.842Z,10.32
2022-07-29T21:02:47.406Z,13.60
2022-07-29T21:05:14.055Z,11.23
2022-07-29T21:07:40.534Z,12.35
2022-07-29T21:10:07.361Z,10.75
2022-07-29T21:12:33.796Z,11.13
2022-07-29T21:15:00.246Z,12.33
2022-07-29T21:17:26.671Z,12.07
2022-07-29T21:19:53.108Z,12.13
2022-07-29T21:22:20.821Z,11.65
2022-07-29T21:24:47.545Z,16.33
2022-07-29T21:27:20.621Z,12.57
2022-07-29T21:29:48.106Z,11.55
2022-07-29T21:32:14.738Z,10.85
2022-07-29T21:34:55.941Z,13.35
2022-07-29T21:37:22.419Z,11.45
2022-07-29T21:39:48.818Z,10.03
2022-07-29T21:42:15.279Z,10.80
2022-07-29T21:44:41.699Z,13.70
2022-07-29T21:47:09.315Z,13.13
2022-07-29T21:49:36.124Z,13.10
2022-07-29T21:52:04.297Z,11.43
2022-07-29T21:54:31.282Z,12.10
2022-07-29T21:56:57.912Z,11.07
2022-07-29T21:59:24.865Z,13.07
2022-07-29T22:01:51.410Z,11.77
2022-07-29T22:04:19.064Z,14.50
2022-07-29T22:06:45.547Z,13.45
2022-07-29T22:09:12.043Z,14.05
2022-07-29T22:11:38.518Z,12.73
2022-07-29T22:14:05.663Z,15.30
2022-07-29T22:16:32.139Z,13.67
2022-07-29T22:18:58.615Z,15.35
2022-07-29T22:21:25.076Z,15.45
2022-07-29T22:23:51.520Z,13.48
2022-07-29T22:26:17.990Z,13.43
2022-07-29T22:28:44.491Z,13.87
2022-07-29T22:31:11.125Z,14.05
2022-07-29T22:33:37.870Z,14.10
2022-07-29T22:36:04.506Z,14.18
2022-07-29T22:38:30.934Z,11.38
2022-07-29T22:41:00.674Z,18.70
2022-07-29T22:43:28.349Z,12.98
2022-07-29T22:45:54.855Z,13.00
2022-07-29T22:48:21.351Z,11.82
2022-07-29T22:50:47.856Z,13.65
2022-07-29T22:53:14.316Z,16.77
2022-07-29T22:55:40.782Z,13.82
2022-07-29T22:58:07.239Z,18.58
2022-07-29T23:00:33.771Z,16.02
2022-07-29T23:03:00.384Z,11.98
2022-07-29T23:05:26.833Z,15.07
2022-07-29T23:07:53.320Z,15.57
2022-07-29T23:10:19.760Z,13.90
2022-07-29T23:12:46.205Z,17.48
2022-07-29T23:15:12.872Z,15.43
2022-07-29T23:17:39.445Z,15.30
2022-07-29T23:20:07.999Z,14.10
2022-07-29T23:22:35.955Z,18.92
2022-07-29T23:25:02.619Z,17.42
2022-07-29T23:27:29.250Z,17.23
2022-07-29T23:29:55.735Z,16.60
2022-07-29T23:32:22.210Z,16.27
2022-07-29T23:34:48.719Z,16.23
2022-07-29T23:37:15.160Z,17.25
2022-07-29T23:39:41.820Z,14.23
2022-07-29T23:42:09.514Z,17.47
2022-07-29T23:44:35.968Z,15.00
2022-07-29T23:47:02.894Z,14.55
2022-07-29T23:49:29.738Z,17.50
2022-07-29T23:51:56.235Z,16.42
2022-07-29T23:54:22.754Z,13.27
2022-07-29T23:56:49.315Z,15.00
2022-07-29T23:59:15.821Z,18.08
